sensor_id;sensor_type;location;lat;lon;timestamp;temperature;humidity
3866;DHT22;1948;53.250;10.412;2022-07-03T00:00:53;20.70;99.90
3866;DHT22;1948;53.250;10.412;2022-07-03T00:03:22;20.80;99.90
3866;DHT22;1948;53.250;10.412;2022-07-03T00:05:49;20.80;99.90
3866;DHT22;1948;53.250;10.412;2022-07-03T00:08:18;20.70;99.90
3866;DHT22;1948;53.250;10.412;2022-07-03T00:10:45;20.70;99.90
3866;DHT22;1948;53.250;10.412;2022-07-03T00:13:14;20.70;99.90
3866;DHT22;1948;53.250;10.412;2022-07-03T00:15:41;20.70;99.90
3866;DHT22;1948;53.250;10.412;2022-07-03T00:18:10;20.70;99.90
3866;DHT22;1948;53.250;10.412;2022-07-03T00:20:51;20.70;99.90
3866;DHT22;1948;53.250;10.412;2022-07-03T00:23:29;20.80;99.90
3866;DHT22;1948;53.250;10.412;2022-07-03T00:25:58;20.70;99.90
3866;DHT22;1948;53.250;10.412;2022-07-03T00:28:28;20.70;99.90
3866;DHT22;1948;53.250;10.412;2022-07-03T00:30:58;20.70;99.90
3866;DHT22;1948;53.250;10.412;2022-07-03T00:33:33;20.70;99.90
3866;DHT22;1948;53.250;10.412;2022-07-03T00:36:04;20.70;99.90
3866;DHT22;1948;53.250;10.412;2022-07-03T00:38:32;20.70;99.90
3866;DHT22;1948;53.250;10.412;2022-07-03T00:41:02;20.60;99.90
3866;DHT22;1948;53.250;10.412;2022-07-03T00:43:30;20.60;99.90
3866;DHT22;1948;53.250;10.412;2022-07-03T00:46:07;20.60;99.90
3866;DHT22;1948;53.250;10.412;2022-07-03T00:48:37;20.60;99.90
3866;DHT22;1948;53.250;10.412;2022-07-03T00:51:08;20.60;99.90
3866;DHT22;1948;53.250;10.412;2022-07-03T00:53:41;20.60;99.90
3866;DHT22;1948;53.250;10.412;2022-07-03T00:56:13;20.60;99.90
3866;DHT22;1948;53.250;10.412;2022-07-03T00:58:40;20.50;99.90
3866;DHT22;1948;53.250;10.412;2022-07-03T01:01:08;20.60;99.90
3866;DHT22;1948;53.250;10.412;2022-07-03T01:03:44;20.60;99.90
3866;DHT22;1948;53.250;10.412;2022-07-03T01:06:15;20.60;99.90
3866;DHT22;1948;53.250;10.412;2022-07-03T01:08:49;20.60;99.90
3866;DHT22;1948;53.250;10.412;2022-07-03T01:11:28;20.60;99.90
3866;DHT22;1948;53.250;10.412;2022-07-03T01:16:57;20.50;99.90
3866;DHT22;1948;53.250;10.412;2022-07-03T01:19:37;20.40;99.90
3866;DHT22;1948;53.250;10.412;2022-07-03T01:25:02;20.30;99.90
3866;DHT22;1948;53.250;10.412;2022-07-03T01:30:49;20.30;99.90
3866;DHT22;1948;53.250;10.412;2022-07-03T01:33:23;20.20;99.90
3866;DHT22;1948;53.250;10.412;2022-07-03T01:38:32;20.00;99.90
3866;DHT22;1948;53.250;10.412;2022-07-03T01:41:12;19.90;99.90
3866;DHT22;1948;53.250;10.412;2022-07-03T01:43:44;19.90;99.90
3866;DHT22;1948;53.250;10.412;2022-07-03T01:46:15;19.90;99.90
3866;DHT22;1948;53.250;10.412;2022-07-03T01:48:45;19.90;99.90
3866;DHT22;1948;53.250;10.412;2022-07-03T01:51:15;19.90;99.90
3866;DHT22;1948;53.250;10.412;2022-07-03T01:53:48;19.80;99.90
3866;DHT22;1948;53.250;10.412;2022-07-03T01:56:17;19.80;99.90
3866;DHT22;1948;53.250;10.412;2022-07-03T01:58:45;19.70;99.90
3866;DHT22;1948;53.250;10.412;2022-07-03T02:01:25;19.60;99.90
3866;DHT22;1948;53.250;10.412;2022-07-03T02:05:13;19.60;99.90
3866;DHT22;1948;53.250;10.412;2022-07-03T02:07:40;19.60;99.90
3866;DHT22;1948;53.250;10.412;2022-07-03T02:10:16;19.50;99.90
3866;DHT22;1948;53.250;10.412;2022-07-03T02:12:52;19.50;99.90
3866;DHT22;1948;53.250;10.412;2022-07-03T02:15:29;19.50;99.90
3866;DHT22;1948;53.250;10.412;2022-07-03T02:18:10;19.40;99.90
3866;DHT22;1948;53.250;10.412;2022-07-03T02:21:14;19.40;99.90
3866;DHT22;1948;53.250;10.412;2022-07-03T02:24:03;19.30;99.90
3866;DHT22;1948;53.250;10.412;2022-07-03T02:26:39;19.30;99.90
3866;DHT22;1948;53.250;10.412;2022-07-03T02:29:12;19.30;99.90
3866;DHT22;1948;53.250;10.412;2022-07-03T02:31:44;19.30;99.90
3866;DHT22;1948;53.250;10.412;2022-07-03T02:34:15;19.30;99.90
3866;DHT22;1948;53.250;10.412;2022-07-03T02:36:46;19.30;99.90
3866;DHT22;1948;53.250;10.412;2022-07-03T02:39:34;19.20;99.90
3866;DHT22;1948;53.250;10.412;2022-07-03T02:42:19;19.20;99.90
3866;DHT22;1948;53.250;10.412;2022-07-03T02:44:53;19.10;99.90
3866;DHT22;1948;53.250;10.412;2022-07-03T02:50:11;19.00;99.90
3866;DHT22;1948;53.250;10.412;2022-07-03T03:03:49;18.90;99.90
3866;DHT22;1948;53.250;10.412;2022-07-03T03:06:21;19.00;99.90
3866;DHT22;1948;53.250;10.412;2022-07-03T03:09:03;19.00;99.90
3866;DHT22;1948;53.250;10.412;2022-07-03T03:14:12;19.00;99.90
3866;DHT22;1948;53.250;10.412;2022-07-03T03:16:50;19.10;99.90
3866;DHT22;1948;53.250;10.412;2022-07-03T03:19:23;19.10;99.90
3866;DHT22;1948;53.250;10.412;2022-07-03T03:24:45;19.10;99.90
3866;DHT22;1948;53.250;10.412;2022-07-03T03:27:17;19.10;99.90
3866;DHT22;1948;53.250;10.412;2022-07-03T03:29:45;19.10;99.90
3866;DHT22;1948;53.250;10.412;2022-07-03T03:32:13;19.10;99.90
3866;DHT22;1948;53.250;10.412;2022-07-03T03:34:41;19.10;99.90
3866;DHT22;1948;53.250;10.412;2022-07-03T03:37:08;19.00;99.90
3866;DHT22;1948;53.250;10.412;2022-07-03T03:39:35;19.00;99.90
3866;DHT22;1948;53.250;10.412;2022-07-03T03:42:03;19.00;99.90
3866;DHT22;1948;53.250;10.412;2022-07-03T03:44:31;19.00;99.90
3866;DHT22;1948;53.250;10.412;2022-07-03T03:46:58;19.00;99.90
3866;DHT22;1948;53.250;10.412;2022-07-03T03:49:24;18.90;99.90
3866;DHT22;1948;53.250;10.412;2022-07-03T03:51:54;18.90;99.90
3866;DHT22;1948;53.250;10.412;2022-07-03T03:54:21;18.80;99.90
3866;DHT22;1948;53.250;10.412;2022-07-03T03:56:48;18.80;99.90
3866;DHT22;1948;53.250;10.412;2022-07-03T03:59:15;18.80;99.90
3866;DHT22;1948;53.250;10.412;2022-07-03T04:01:45;18.80;99.90
3866;DHT22;1948;53.250;10.412;2022-07-03T04:04:14;18.70;99.90
3866;DHT22;1948;53.250;10.412;2022-07-03T04:06:44;18.70;99.90
3866;DHT22;1948;53.250;10.412;2022-07-03T04:09:11;18.50;99.90
3866;DHT22;1948;53.250;10.412;2022-07-03T04:11:38;18.50;99.90
3866;DHT22;1948;53.250;10.412;2022-07-03T04:14:07;18.50;99.90
3866;DHT22;1948;53.250;10.412;2022-07-03T04:16:37;18.50;99.90
3866;DHT22;1948;53.250;10.412;2022-07-03T04:19:04;18.50;99.90
3866;DHT22;1948;53.250;10.412;2022-07-03T04:21:30;18.60;99.90
3866;DHT22;1948;53.250;10.412;2022-07-03T04:23:57;18.60;99.90
3866;DHT22;1948;53.250;10.412;2022-07-03T04:26:27;18.60;99.90
3866;DHT22;1948;53.250;10.412;2022-07-03T04:28:54;18.70;99.90
3866;DHT22;1948;53.250;10.412;2022-07-03T04:31:23;18.70;99.90
3866;DHT22;1948;53.250;10.412;2022-07-03T04:33:52;18.80;99.90
3866;DHT22;1948;53.250;10.412;2022-07-03T04:36:19;19.00;99.90
3866;DHT22;1948;53.250;10.412;2022-07-03T04:38:46;19.20;99.90
3866;DHT22;1948;53.250;10.412;2022-07-03T04:41:13;19.30;99.90
3866;DHT22;1948;53.250;10.412;2022-07-03T04:43:40;19.30;99.90
3866;DHT22;1948;53.250;10.412;2022-07-03T04:46:07;19.40;99.90
3866;DHT22;1948;53.250;10.412;2022-07-03T04:48:34;19.50;99.90
3866;DHT22;1948;53.250;10.412;2022-07-03T04:51:04;19.70;99.90
3866;DHT22;1948;53.250;10.412;2022-07-03T04:53:31;19.80;99.90
3866;DHT22;1948;53.250;10.412;2022-07-03T04:56:00;19.80;99.90
3866;DHT22;1948;53.250;10.412;2022-07-03T04:58:27;19.90;99.90
3866;DHT22;1948;53.250;10.412;2022-07-03T05:00:55;20.00;99.90
3866;DHT22;1948;53.250;10.412;2022-07-03T05:03:22;20.10;99.90
3866;DHT22;1948;53.250;10.412;2022-07-03T05:05:49;20.20;99.90
3866;DHT22;1948;53.250;10.412;2022-07-03T05:08:18;20.20;99.90
3866;DHT22;1948;53.250;10.412;2022-07-03T05:10:49;20.30;99.90
3866;DHT22;1948;53.250;10.412;2022-07-03T05:13:18;20.40;99.90
3866;DHT22;1948;53.250;10.412;2022-07-03T05:15:47;20.40;99.90
3866;DHT22;1948;53.250;10.412;2022-07-03T05:18:14;20.40;99.90
3866;DHT22;1948;53.250;10.412;2022-07-03T05:20:48;20.40;99.90
3866;DHT22;1948;53.250;10.412;2022-07-03T05:23:19;20.60;99.90
3866;DHT22;1948;53.250;10.412;2022-07-03T05:25:49;20.60;99.90
3866;DHT22;1948;53.250;10.412;2022-07-03T05:28:21;20.70;99.90
3866;DHT22;1948;53.250;10.412;2022-07-03T05:30:48;20.80;99.90
3866;DHT22;1948;53.250;10.412;2022-07-03T05:33:15;20.80;99.90
3866;DHT22;1948;53.250;10.412;2022-07-03T05:35:42;20.90;99.90
3866;DHT22;1948;53.250;10.412;2022-07-03T05:38:11;20.90;99.90
3866;DHT22;1948;53.250;10.412;2022-07-03T05:40:40;20.90;99.90
3866;DHT22;1948;53.250;10.412;2022-07-03T05:43:07;21.00;99.90
3866;DHT22;1948;53.250;10.412;2022-07-03T05:45:37;21.10;99.90
3866;DHT22;1948;53.250;10.412;2022-07-03T05:48:09;21.20;99.90
3866;DHT22;1948;53.250;10.412;2022-07-03T05:50:39;21.20;99.90
3866;DHT22;1948;53.250;10.412;2022-07-03T05:53:06;21.20;99.90
3866;DHT22;1948;53.250;10.412;2022-07-03T05:55:36;21.30;99.90
3866;DHT22;1948;53.250;10.412;2022-07-03T05:58:03;21.40;99.90
3866;DHT22;1948;53.250;10.412;2022-07-03T06:00:30;21.50;99.90
3866;DHT22;1948;53.250;10.412;2022-07-03T06:02:57;21.70;99.90
3866;DHT22;1948;53.250;10.412;2022-07-03T06:05:24;21.90;99.90
3866;DHT22;1948;53.250;10.412;2022-07-03T06:07:52;21.90;99.90
3866;DHT22;1948;53.250;10.412;2022-07-03T06:10:20;22.00;99.90
3866;DHT22;1948;53.250;10.412;2022-07-03T06:12:47;22.10;99.90
3866;DHT22;1948;53.250;10.412;2022-07-03T06:15:14;22.00;99.90
3866;DHT22;1948;53.250;10.412;2022-07-03T06:17:41;22.10;99.90
3866;DHT22;1948;53.250;10.412;2022-07-03T06:20:11;22.30;99.90
3866;DHT22;1948;53.250;10.412;2022-07-03T06:22:38;22.20;99.90
3866;DHT22;1948;53.250;10.412;2022-07-03T06:25:11;22.20;99.90
3866;DHT22;1948;53.250;10.412;2022-07-03T06:27:38;22.30;99.90
3866;DHT22;1948;53.250;10.412;2022-07-03T06:30:06;22.40;99.90
3866;DHT22;1948;53.250;10.412;2022-07-03T06:32:33;22.40;99.90
3866;DHT22;1948;53.250;10.412;2022-07-03T06:35:03;22.50;99.90
3866;DHT22;1948;53.250;10.412;2022-07-03T06:37:30;22.60;99.90
3866;DHT22;1948;53.250;10.412;2022-07-03T06:40:06;22.60;99.90
3866;DHT22;1948;53.250;10.412;2022-07-03T06:42:35;22.60;99.90
3866;DHT22;1948;53.250;10.412;2022-07-03T06:45:03;22.70;99.90
3866;DHT22;1948;53.250;10.412;2022-07-03T06:47:30;23.00;99.90
3866;DHT22;1948;53.250;10.412;2022-07-03T06:49:57;23.10;99.90
3866;DHT22;1948;53.250;10.412;2022-07-03T06:52:24;23.20;99.90
3866;DHT22;1948;53.250;10.412;2022-07-03T06:54:53;23.30;99.90
3866;DHT22;1948;53.250;10.412;2022-07-03T06:57:20;23.50;99.90
3866;DHT22;1948;53.250;10.412;2022-07-03T06:59:52;23.60;99.90
3866;DHT22;1948;53.250;10.412;2022-07-03T07:02:21;23.80;99.90
3866;DHT22;1948;53.250;10.412;2022-07-03T07:04:50;24.00;99.90
3866;DHT22;1948;53.250;10.412;2022-07-03T07:07:17;24.20;99.90
3866;DHT22;1948;53.250;10.412;2022-07-03T07:09:45;24.20;99.90
3866;DHT22;1948;53.250;10.412;2022-07-03T07:12:15;24.20;99.90
3866;DHT22;1948;53.250;10.412;2022-07-03T07:14:42;24.30;99.90
3866;DHT22;1948;53.250;10.412;2022-07-03T07:17:09;24.50;99.90
3866;DHT22;1948;53.250;10.412;2022-07-03T07:19:37;24.60;99.90
3866;DHT22;1948;53.250;10.412;2022-07-03T07:22:14;24.80;99.90
3866;DHT22;1948;53.250;10.412;2022-07-03T07:24:41;24.80;99.90
3866;DHT22;1948;53.250;10.412;2022-07-03T07:27:10;24.90;99.90
3866;DHT22;1948;53.250;10.412;2022-07-03T07:29:37;25.00;99.90
3866;DHT22;1948;53.250;10.412;2022-07-03T07:32:04;25.20;99.90
3866;DHT22;1948;53.250;10.412;2022-07-03T07:34:31;25.40;99.90
3866;DHT22;1948;53.250;10.412;2022-07-03T07:36:58;25.50;99.90
3866;DHT22;1948;53.250;10.412;2022-07-03T07:39:28;25.60;99.90
3866;DHT22;1948;53.250;10.412;2022-07-03T07:41:57;25.70;99.90
3866;DHT22;1948;53.250;10.412;2022-07-03T07:44:26;25.80;99.90
3866;DHT22;1948;53.250;10.412;2022-07-03T07:46:58;25.80;99.90
3866;DHT22;1948;53.250;10.412;2022-07-03T07:49:28;25.90;99.90
3866;DHT22;1948;53.250;10.412;2022-07-03T07:52:00;25.70;99.90
3866;DHT22;1948;53.250;10.412;2022-07-03T07:54:27;25.60;99.90
3866;DHT22;1948;53.250;10.412;2022-07-03T07:56:55;25.70;99.90
3866;DHT22;1948;53.250;10.412;2022-07-03T07:59:25;25.90;99.90
3866;DHT22;1948;53.250;10.412;2022-07-03T08:01:52;26.10;99.90
3866;DHT22;1948;53.250;10.412;2022-07-03T08:04:38;26.30;99.90
3866;DHT22;1948;53.250;10.412;2022-07-03T08:07:23;26.50;99.90
3866;DHT22;1948;53.250;10.412;2022-07-03T08:09:53;26.50;99.90
3866;DHT22;1948;53.250;10.412;2022-07-03T08:12:21;26.60;99.90
3866;DHT22;1948;53.250;10.412;2022-07-03T08:14:51;26.60;99.90
3866;DHT22;1948;53.250;10.412;2022-07-03T08:17:20;26.80;99.90
3866;DHT22;1948;53.250;10.412;2022-07-03T08:19:50;26.90;99.90
3866;DHT22;1948;53.250;10.412;2022-07-03T08:22:21;27.10;99.90
3866;DHT22;1948;53.250;10.412;2022-07-03T08:24:51;27.40;99.90
3866;DHT22;1948;53.250;10.412;2022-07-03T08:27:20;27.60;99.90
3866;DHT22;1948;53.250;10.412;2022-07-03T08:29:50;27.80;99.90
3866;DHT22;1948;53.250;10.412;2022-07-03T08:32:19;27.90;99.90
3866;DHT22;1948;53.250;10.412;2022-07-03T08:34:48;28.20;99.90
3866;DHT22;1948;53.250;10.412;2022-07-03T08:37:15;28.20;99.90
3866;DHT22;1948;53.250;10.412;2022-07-03T08:39:44;28.30;99.90
3866;DHT22;1948;53.250;10.412;2022-07-03T08:42:12;28.20;99.90
3866;DHT22;1948;53.250;10.412;2022-07-03T08:44:43;28.10;99.90
3866;DHT22;1948;53.250;10.412;2022-07-03T08:47:12;28.10;99.90
3866;DHT22;1948;53.250;10.412;2022-07-03T08:49:41;28.20;99.90
3866;DHT22;1948;53.250;10.412;2022-07-03T08:52:09;28.30;99.90
3866;DHT22;1948;53.250;10.412;2022-07-03T08:54:40;28.40;99.90
3866;DHT22;1948;53.250;10.412;2022-07-03T08:57:09;28.50;99.90
3866;DHT22;1948;53.250;10.412;2022-07-03T08:59:39;28.50;99.90
3866;DHT22;1948;53.250;10.412;2022-07-03T09:02:06;28.30;99.90
3866;DHT22;1948;53.250;10.412;2022-07-03T09:04:34;28.40;99.90
3866;DHT22;1948;53.250;10.412;2022-07-03T09:07:01;28.50;99.90
3866;DHT22;1948;53.250;10.412;2022-07-03T09:09:28;28.60;99.90
3866;DHT22;1948;53.250;10.412;2022-07-03T09:11:55;28.80;99.90
3866;DHT22;1948;53.250;10.412;2022-07-03T09:14:27;29.00;99.90
3866;DHT22;1948;53.250;10.412;2022-07-03T09:16:54;29.20;99.90
3866;DHT22;1948;53.250;10.412;2022-07-03T09:19:41;29.50;99.90
3866;DHT22;1948;53.250;10.412;2022-07-03T09:22:27;29.40;99.90
3866;DHT22;1948;53.250;10.412;2022-07-03T09:25:08;29.70;99.90
3866;DHT22;1948;53.250;10.412;2022-07-03T09:27:38;30.20;99.90
3866;DHT22;1948;53.250;10.412;2022-07-03T09:30:19;30.50;99.90
3866;DHT22;1948;53.250;10.412;2022-07-03T09:32:48;30.80;99.90
3866;DHT22;1948;53.250;10.412;2022-07-03T09:40:49;31.20;98.90
3866;DHT22;1948;53.250;10.412;2022-07-03T09:43:23;31.20;98.50
3866;DHT22;1948;53.250;10.412;2022-07-03T09:46:00;31.30;98.50
3866;DHT22;1948;53.250;10.412;2022-07-03T09:51:14;31.70;97.70
3866;DHT22;1948;53.250;10.412;2022-07-03T09:53:50;32.00;97.70
3866;DHT22;1948;53.250;10.412;2022-07-03T09:56:34;32.00;96.90
3866;DHT22;1948;53.250;10.412;2022-07-03T09:59:09;32.40;96.30
3866;DHT22;1948;53.250;10.412;2022-07-03T10:01:43;32.60;95.80
3866;DHT22;1948;53.250;10.412;2022-07-03T10:04:20;32.60;95.40
3866;DHT22;1948;53.250;10.412;2022-07-03T10:06:54;32.50;95.50
3866;DHT22;1948;53.250;10.412;2022-07-03T10:09:33;32.50;95.80
3866;DHT22;1948;53.250;10.412;2022-07-03T10:12:03;32.30;96.10
3866;DHT22;1948;53.250;10.412;2022-07-03T10:14:35;32.30;96.40
3866;DHT22;1948;53.250;10.412;2022-07-03T10:17:06;32.10;96.20
3866;DHT22;1948;53.250;10.412;2022-07-03T10:19:42;32.10;96.60
3866;DHT22;1948;53.250;10.412;2022-07-03T10:22:18;32.00;96.60
3866;DHT22;1948;53.250;10.412;2022-07-03T10:24:48;32.20;96.50
3866;DHT22;1948;53.250;10.412;2022-07-03T10:27:16;32.20;96.70
3866;DHT22;1948;53.250;10.412;2022-07-03T10:29:43;32.30;96.50
3866;DHT22;1948;53.250;10.412;2022-07-03T10:32:13;32.30;96.30
3866;DHT22;1948;53.250;10.412;2022-07-03T10:34:41;32.50;96.00
3866;DHT22;1948;53.250;10.412;2022-07-03T10:37:15;32.80;95.50
3866;DHT22;1948;53.250;10.412;2022-07-03T10:40:13;32.90;95.10
3866;DHT22;1948;53.250;10.412;2022-07-03T10:43:03;32.80;94.90
3866;DHT22;1948;53.250;10.412;2022-07-03T10:46:14;33.00;94.70
3866;DHT22;1948;53.250;10.412;2022-07-03T10:51:21;33.40;93.50
3866;DHT22;1948;53.250;10.412;2022-07-03T10:54:27;33.40;92.90
3866;DHT22;1948;53.250;10.412;2022-07-03T11:02:23;33.00;92.50
3866;DHT22;1948;53.250;10.412;2022-07-03T11:33:47;33.60;91.20
3866;DHT22;1948;53.250;10.412;2022-07-03T11:36:30;33.70;91.30
3866;DHT22;1948;53.250;10.412;2022-07-03T11:41:30;33.40;91.10
3866;DHT22;1948;53.250;10.412;2022-07-03T11:44:07;33.60;91.20
3866;DHT22;1948;53.250;10.412;2022-07-03T11:46:38;33.70;90.40
3866;DHT22;1948;53.250;10.412;2022-07-03T11:49:10;33.80;90.10
3866;DHT22;1948;53.250;10.412;2022-07-03T11:51:38;33.90;90.00
3866;DHT22;1948;53.250;10.412;2022-07-03T11:54:10;33.90;90.00
3866;DHT22;1948;53.250;10.412;2022-07-03T11:56:39;33.70;90.00
3866;DHT22;1948;53.250;10.412;2022-07-03T11:59:09;33.70;90.30
3866;DHT22;1948;53.250;10.412;2022-07-03T12:01:39;33.80;89.20
3866;DHT22;1948;53.250;10.412;2022-07-03T12:04:20;33.90;88.30
3866;DHT22;1948;53.250;10.412;2022-07-03T12:06:56;34.00;87.50
3866;DHT22;1948;53.250;10.412;2022-07-03T12:09:33;33.70;87.50
3866;DHT22;1948;53.250;10.412;2022-07-03T12:12:10;33.50;87.80
3866;DHT22;1948;53.250;10.412;2022-07-03T12:14:38;33.30;87.90
3866;DHT22;1948;53.250;10.412;2022-07-03T12:17:18;33.20;88.50
3866;DHT22;1948;53.250;10.412;2022-07-03T12:19:47;33.30;87.40
3866;DHT22;1948;53.250;10.412;2022-07-03T12:22:44;33.10;88.10
3866;DHT22;1948;53.250;10.412;2022-07-03T12:25:13;33.30;87.70
3866;DHT22;1948;53.250;10.412;2022-07-03T12:27:45;33.50;86.90
3866;DHT22;1948;53.250;10.412;2022-07-03T12:30:19;33.50;85.20
3866;DHT22;1948;53.250;10.412;2022-07-03T12:32:54;33.70;84.80
3866;DHT22;1948;53.250;10.412;2022-07-03T12:35:27;33.90;84.50
3866;DHT22;1948;53.250;10.412;2022-07-03T12:37:58;34.20;85.00
3866;DHT22;1948;53.250;10.412;2022-07-03T12:40:25;34.20;83.80
3866;DHT22;1948;53.250;10.412;2022-07-03T12:42:55;34.10;82.20
3866;DHT22;1948;53.250;10.412;2022-07-03T12:45:25;34.30;82.40
3866;DHT22;1948;53.250;10.412;2022-07-03T12:47:57;34.20;81.70
3866;DHT22;1948;53.250;10.412;2022-07-03T12:50:49;34.00;80.70
3866;DHT22;1948;53.250;10.412;2022-07-03T12:53:32;33.80;80.80
3866;DHT22;1948;53.250;10.412;2022-07-03T12:56:04;33.60;81.10
3866;DHT22;1948;53.250;10.412;2022-07-03T12:58:39;33.50;81.00
3866;DHT22;1948;53.250;10.412;2022-07-03T13:01:30;33.30;82.00
3866;DHT22;1948;53.250;10.412;2022-07-03T13:04:06;33.30;82.00
3866;DHT22;1948;53.250;10.412;2022-07-03T13:06:37;33.40;82.30
3866;DHT22;1948;53.250;10.412;2022-07-03T13:09:05;33.50;81.90
3866;DHT22;1948;53.250;10.412;2022-07-03T13:11:37;33.60;81.40
3866;DHT22;1948;53.250;10.412;2022-07-03T13:14:15;33.60;81.90
3866;DHT22;1948;53.250;10.412;2022-07-03T13:16:49;33.80;82.80
3866;DHT22;1948;53.250;10.412;2022-07-03T13:19:23;34.00;81.70
3866;DHT22;1948;53.250;10.412;2022-07-03T13:21:54;33.90;80.80
3866;DHT22;1948;53.250;10.412;2022-07-03T13:24:24;34.00;80.30
3866;DHT22;1948;53.250;10.412;2022-07-03T13:26:53;33.90;80.50
3866;DHT22;1948;53.250;10.412;2022-07-03T13:29:22;33.70;79.90
3866;DHT22;1948;53.250;10.412;2022-07-03T13:31:52;33.60;80.20
3866;DHT22;1948;53.250;10.412;2022-07-03T13:34:21;33.60;80.10
3866;DHT22;1948;53.250;10.412;2022-07-03T13:36:50;33.80;79.70
3866;DHT22;1948;53.250;10.412;2022-07-03T13:39:17;33.90;80.00
3866;DHT22;1948;53.250;10.412;2022-07-03T13:41:44;33.90;78.40
3866;DHT22;1948;53.250;10.412;2022-07-03T13:44:11;33.90;78.30
3866;DHT22;1948;53.250;10.412;2022-07-03T13:46:38;33.80;78.20
3866;DHT22;1948;53.250;10.412;2022-07-03T13:49:05;33.60;76.80
3866;DHT22;1948;53.250;10.412;2022-07-03T13:51:32;33.40;76.80
3866;DHT22;1948;53.250;10.412;2022-07-03T13:53:59;33.30;78.00
3866;DHT22;1948;53.250;10.412;2022-07-03T13:56:26;33.30;78.90
3866;DHT22;1948;53.250;10.412;2022-07-03T13:58:57;33.10;78.90
3866;DHT22;1948;53.250;10.412;2022-07-03T14:01:26;33.00;78.70
3866;DHT22;1948;53.250;10.412;2022-07-03T14:03:53;32.90;79.30
3866;DHT22;1948;53.250;10.412;2022-07-03T14:06:20;32.90;79.90
3866;DHT22;1948;53.250;10.412;2022-07-03T14:08:49;33.00;79.90
3866;DHT22;1948;53.250;10.412;2022-07-03T14:11:16;33.10;80.10
3866;DHT22;1948;53.250;10.412;2022-07-03T14:13:44;33.10;80.30
3866;DHT22;1948;53.250;10.412;2022-07-03T14:16:11;33.20;79.90
3866;DHT22;1948;53.250;10.412;2022-07-03T14:18:39;33.10;80.00
3866;DHT22;1948;53.250;10.412;2022-07-03T14:21:06;33.10;79.40
3866;DHT22;1948;53.250;10.412;2022-07-03T14:23:36;33.00;78.60
3866;DHT22;1948;53.250;10.412;2022-07-03T14:26:05;33.00;78.30
3866;DHT22;1948;53.250;10.412;2022-07-03T14:28:34;32.90;79.30
3866;DHT22;1948;53.250;10.412;2022-07-03T14:31:19;32.90;79.10
3866;DHT22;1948;53.250;10.412;2022-07-03T14:34:05;32.90;79.10
3866;DHT22;1948;53.250;10.412;2022-07-03T14:36:32;32.90;78.70
3866;DHT22;1948;53.250;10.412;2022-07-03T14:39:11;32.90;79.10
3866;DHT22;1948;53.250;10.412;2022-07-03T14:41:40;32.90;79.70
3866;DHT22;1948;53.250;10.412;2022-07-03T14:44:11;32.90;79.70
3866;DHT22;1948;53.250;10.412;2022-07-03T14:46:38;32.90;78.60
3866;DHT22;1948;53.250;10.412;2022-07-03T14:49:05;33.00;78.60
3866;DHT22;1948;53.250;10.412;2022-07-03T14:51:32;33.00;78.40
3866;DHT22;1948;53.250;10.412;2022-07-03T14:53:59;33.00;78.00
3866;DHT22;1948;53.250;10.412;2022-07-03T14:56:29;32.60;77.30
3866;DHT22;1948;53.250;10.412;2022-07-03T14:59:00;32.40;77.50
3866;DHT22;1948;53.250;10.412;2022-07-03T15:01:29;32.40;78.00
3866;DHT22;1948;53.250;10.412;2022-07-03T15:04:03;32.40;79.40
3866;DHT22;1948;53.250;10.412;2022-07-03T15:06:32;32.50;79.20
3866;DHT22;1948;53.250;10.412;2022-07-03T15:09:03;32.50;78.30
3866;DHT22;1948;53.250;10.412;2022-07-03T15:11:49;32.30;79.00
3866;DHT22;1948;53.250;10.412;2022-07-03T15:14:43;32.30;79.40
3866;DHT22;1948;53.250;10.412;2022-07-03T15:17:17;32.30;78.80
3866;DHT22;1948;53.250;10.412;2022-07-03T15:19:48;32.30;78.70
3866;DHT22;1948;53.250;10.412;2022-07-03T15:22:22;32.30;78.70
3866;DHT22;1948;53.250;10.412;2022-07-03T15:24:52;32.30;78.20
3866;DHT22;1948;53.250;10.412;2022-07-03T15:27:23;32.30;77.60
3866;DHT22;1948;53.250;10.412;2022-07-03T15:29:50;32.20;77.10
3866;DHT22;1948;53.250;10.412;2022-07-03T15:32:18;31.80;77.50
3866;DHT22;1948;53.250;10.412;2022-07-03T15:34:46;31.70;77.30
3866;DHT22;1948;53.250;10.412;2022-07-03T15:40:35;31.60;78.20
3866;DHT22;1948;53.250;10.412;2022-07-03T15:52:24;31.00;80.00
3866;DHT22;1948;53.250;10.412;2022-07-03T15:59:59;31.00;79.80
3866;DHT22;1948;53.250;10.412;2022-07-03T16:03:06;31.00;80.30
3866;DHT22;1948;53.250;10.412;2022-07-03T16:05:36;31.10;79.70
3866;DHT22;1948;53.250;10.412;2022-07-03T16:08:10;31.10;78.80
3866;DHT22;1948;53.250;10.412;2022-07-03T16:10:41;30.90;78.60
3866;DHT22;1948;53.250;10.412;2022-07-03T16:13:08;30.80;79.20
3866;DHT22;1948;53.250;10.412;2022-07-03T16:15:38;30.70;79.50
3866;DHT22;1948;53.250;10.412;2022-07-03T16:18:10;30.60;79.60
3866;DHT22;1948;53.250;10.412;2022-07-03T16:20:38;30.40;79.50
3866;DHT22;1948;53.250;10.412;2022-07-03T16:23:13;30.40;79.90
3866;DHT22;1948;53.250;10.412;2022-07-03T16:25:42;30.30;79.70
3866;DHT22;1948;53.250;10.412;2022-07-03T16:28:11;30.30;78.80
3866;DHT22;1948;53.250;10.412;2022-07-03T16:31:04;30.20;77.30
3866;DHT22;1948;53.250;10.412;2022-07-03T16:33:34;30.20;77.10
3866;DHT22;1948;53.250;10.412;2022-07-03T16:36:11;30.20;77.10
3866;DHT22;1948;53.250;10.412;2022-07-03T16:38:51;30.40;75.60
3866;DHT22;1948;53.250;10.412;2022-07-03T16:41:30;30.40;75.60
3866;DHT22;1948;53.250;10.412;2022-07-03T16:44:02;30.50;75.80
3866;DHT22;1948;53.250;10.412;2022-07-03T16:46:31;30.60;75.80
3866;DHT22;1948;53.250;10.412;2022-07-03T16:49:07;30.70;76.30
3866;DHT22;1948;53.250;10.412;2022-07-03T16:51:35;30.80;75.20
3866;DHT22;1948;53.250;10.412;2022-07-03T16:54:03;30.80;75.00
3866;DHT22;1948;53.250;10.412;2022-07-03T16:56:30;30.80;74.60
3866;DHT22;1948;53.250;10.412;2022-07-03T16:58:59;30.80;75.30
3866;DHT22;1948;53.250;10.412;2022-07-03T17:01:31;30.60;82.60
3866;DHT22;1948;53.250;10.412;2022-07-03T17:04:00;30.30;87.80
3866;DHT22;1948;53.250;10.412;2022-07-03T17:06:27;29.90;90.30
3866;DHT22;1948;53.250;10.412;2022-07-03T17:08:54;29.50;91.60
3866;DHT22;1948;53.250;10.412;2022-07-03T17:11:25;29.00;92.70
3866;DHT22;1948;53.250;10.412;2022-07-03T17:13:55;28.70;94.00
3866;DHT22;1948;53.250;10.412;2022-07-03T17:16:27;28.40;94.80
3866;DHT22;1948;53.250;10.412;2022-07-03T17:18:58;27.80;95.90
3866;DHT22;1948;53.250;10.412;2022-07-03T17:21:30;27.50;97.40
3866;DHT22;1948;53.250;10.412;2022-07-03T17:24:06;27.20;98.60
3866;DHT22;1948;53.250;10.412;2022-07-03T17:26:34;27.00;99.80
3866;DHT22;1948;53.250;10.412;2022-07-03T17:29:20;26.80;99.90
3866;DHT22;1948;53.250;10.412;2022-07-03T17:31:56;26.50;99.90
3866;DHT22;1948;53.250;10.412;2022-07-03T17:34:25;26.40;99.90
3866;DHT22;1948;53.250;10.412;2022-07-03T17:36:55;26.30;99.90
3866;DHT22;1948;53.250;10.412;2022-07-03T17:39:29;26.20;99.90
3866;DHT22;1948;53.250;10.412;2022-07-03T17:41:58;26.00;99.90
3866;DHT22;1948;53.250;10.412;2022-07-03T17:44:27;26.00;99.90
3866;DHT22;1948;53.250;10.412;2022-07-03T17:46:55;26.00;99.90
3866;DHT22;1948;53.250;10.412;2022-07-03T17:49:30;25.90;99.90